sensor_id;sensor_type;location;lat;lon;timestamp;P1;durP1;ratioP1;P2;durP2;ratioP2
54125;SDS011;40360;52.992;6.796;2023-08-07T00:00:23;8.55;;;5.88;;
54125;SDS011;40360;52.992;6.796;2023-08-07T00:02:49;10.13;;;6.53;;
54125;SDS011;40360;52.992;6.796;2023-08-07T00:05:15;12.02;;;6.85;;
54125;SDS011;40360;52.992;6.796;2023-08-07T00:07:44;9.80;;;5.95;;
54125;SDS011;40360;52.992;6.796;2023-08-07T00:10:09;9.63;;;7.05;;
54125;SDS011;40360;52.992;6.796;2023-08-07T00:12:35;6.72;;;5.80;;
54125;SDS011;40360;52.992;6.796;2023-08-07T00:15:01;7.75;;;5.78;;
54125;SDS011;40360;52.992;6.796;2023-08-07T00:17:28;8.75;;;5.40;;
54125;SDS011;40360;52.992;6.796;2023-08-07T00:19:54;8.40;;;5.50;;
54125;SDS011;40360;52.992;6.796;2023-08-07T00:22:19;7.57;;;5.30;;
54125;SDS011;40360;52.992;6.796;2023-08-07T00:24:45;6.57;;;5.82;;
54125;SDS011;40360;52.992;6.796;2023-08-07T00:27:11;5.93;;;5.05;;
54125;SDS011;40360;52.992;6.796;2023-08-07T00:29:37;7.72;;;5.22;;
54125;SDS011;40360;52.992;6.796;2023-08-07T00:32:03;6.53;;;5.20;;
54125;SDS011;40360;52.992;6.796;2023-08-07T00:34:29;6.95;;;4.80;;
54125;SDS011;40360;52.992;6.796;2023-08-07T00:36:55;10.77;;;5.20;;
54125;SDS011;40360;52.992;6.796;2023-08-07T00:39:21;6.97;;;4.50;;
54125;SDS011;40360;52.992;6.796;2023-08-07T00:41:46;11.02;;;4.47;;
54125;SDS011;40360;52.992;6.796;2023-08-07T00:44:12;5.88;;;4.75;;
54125;SDS011;40360;52.992;6.796;2023-08-07T00:46:38;8.38;;;4.55;;
54125;SDS011;40360;52.992;6.796;2023-08-07T00:49:05;5.80;;;3.97;;
54125;SDS011;40360;52.992;6.796;2023-08-07T00:51:32;6.30;;;5.68;;
54125;SDS011;40360;52.992;6.796;2023-08-07T00:53:58;7.28;;;4.10;;
54125;SDS011;40360;52.992;6.796;2023-08-07T00:56:27;4.50;;;3.72;;
54125;SDS011;40360;52.992;6.796;2023-08-07T00:58:53;7.72;;;4.88;;
54125;SDS011;40360;52.992;6.796;2023-08-07T01:01:19;5.47;;;3.80;;
54125;SDS011;40360;52.992;6.796;2023-08-07T01:03:45;6.43;;;4.32;;
54125;SDS011;40360;52.992;6.796;2023-08-07T01:06:10;9.02;;;5.03;;
54125;SDS011;40360;52.992;6.796;2023-08-07T01:08:36;9.65;;;5.00;;
54125;SDS011;40360;52.992;6.796;2023-08-07T01:13:49;8.82;;;5.68;;
54125;SDS011;40360;52.992;6.796;2023-08-07T01:19:33;7.20;;;4.43;;
54125;SDS011;40360;52.992;6.796;2023-08-07T01:22:04;6.70;;;4.07;;
54125;SDS011;40360;52.992;6.796;2023-08-07T01:24:41;7.60;;;4.45;;
54125;SDS011;40360;52.992;6.796;2023-08-07T01:32:33;7.03;;;4.40;;
54125;SDS011;40360;52.992;6.796;2023-08-07T01:35:19;7.15;;;4.57;;
54125;SDS011;40360;52.992;6.796;2023-08-07T01:37:50;5.20;;;4.25;;
54125;SDS011;40360;52.992;6.796;2023-08-07T01:40:18;4.45;;;3.60;;
54125;SDS011;40360;52.992;6.796;2023-08-07T01:42:45;8.55;;;3.95;;
54125;SDS011;40360;52.992;6.796;2023-08-07T01:45:12;8.40;;;3.83;;
54125;SDS011;40360;52.992;6.796;2023-08-07T01:47:39;5.97;;;3.63;;
54125;SDS011;40360;52.992;6.796;2023-08-07T01:50:05;5.28;;;3.80;;
54125;SDS011;40360;52.992;6.796;2023-08-07T01:52:31;5.15;;;3.70;;
54125;SDS011;40360;52.992;6.796;2023-08-07T01:54:57;11.40;;;4.25;;
54125;SDS011;40360;52.992;6.796;2023-08-07T01:57:23;5.13;;;3.42;;
54125;SDS011;40360;52.992;6.796;2023-08-07T01:59:48;7.30;;;4.10;;
54125;SDS011;40360;52.992;6.796;2023-08-07T02:02:14;6.20;;;3.42;;
54125;SDS011;40360;52.992;6.796;2023-08-07T02:04:40;6.55;;;3.55;;
54125;SDS011;40360;52.992;6.796;2023-08-07T02:07:05;6.70;;;3.80;;
54125;SDS011;40360;52.992;6.796;2023-08-07T02:09:31;6.97;;;3.08;;
54125;SDS011;40360;52.992;6.796;2023-08-07T02:11:56;7.32;;;3.90;;
54125;SDS011;40360;52.992;6.796;2023-08-07T02:14:22;5.53;;;3.38;;
54125;SDS011;40360;52.992;6.796;2023-08-07T02:16:47;5.03;;;2.95;;
54125;SDS011;40360;52.992;6.796;2023-08-07T02:19:13;6.78;;;3.35;;
54125;SDS011;40360;52.992;6.796;2023-08-07T02:21:39;7.28;;;3.60;;
54125;SDS011;40360;52.992;6.796;2023-08-07T02:24:04;8.10;;;3.42;;
54125;SDS011;40360;52.992;6.796;2023-08-07T02:26:30;6.35;;;3.67;;
54125;SDS011;40360;52.992;6.796;2023-08-07T02:28:55;8.95;;;4.53;;
54125;SDS011;40360;52.992;6.796;2023-08-07T02:31:21;10.63;;;3.63;;
54125;SDS011;40360;52.992;6.796;2023-08-07T02:33:46;10.20;;;3.85;;
54125;SDS011;40360;52.992;6.796;2023-08-07T02:36:12;10.30;;;3.10;;
54125;SDS011;40360;52.992;6.796;2023-08-07T02:38:38;10.40;;;3.53;;
54125;SDS011;40360;52.992;6.796;2023-08-07T02:41:03;11.82;;;3.70;;
54125;SDS011;40360;52.992;6.796;2023-08-07T02:43:29;8.23;;;4.07;;
54125;SDS011;40360;52.992;6.796;2023-08-07T02:45:58;10.00;;;3.75;;
54125;SDS011;40360;52.992;6.796;2023-08-07T02:48:23;12.20;;;3.63;;
54125;SDS011;40360;52.992;6.796;2023-08-07T02:50:49;15.38;;;3.80;;
54125;SDS011;40360;52.992;6.796;2023-08-07T02:53:16;10.15;;;3.00;;
54125;SDS011;40360;52.992;6.796;2023-08-07T02:55:43;13.48;;;4.15;;
54125;SDS011;40360;52.992;6.796;2023-08-07T02:58:08;14.38;;;3.63;;
54125;SDS011;40360;52.992;6.796;2023-08-07T03:00:34;13.40;;;3.97;;
54125;SDS011;40360;52.992;6.796;2023-08-07T03:03:00;8.80;;;3.75;;
54125;SDS011;40360;52.992;6.796;2023-08-07T03:05:26;9.35;;;3.05;;
54125;SDS011;40360;52.992;6.796;2023-08-07T03:07:51;10.10;;;3.10;;
54125;SDS011;40360;52.992;6.796;2023-08-07T03:10:17;11.57;;;3.20;;
54125;SDS011;40360;52.992;6.796;2023-08-07T03:12:42;15.52;;;3.50;;
54125;SDS011;40360;52.992;6.796;2023-08-07T03:15:08;14.93;;;4.32;;
54125;SDS011;40360;52.992;6.796;2023-08-07T03:17:34;9.30;;;4.18;;
54125;SDS011;40360;52.992;6.796;2023-08-07T03:20:00;11.20;;;3.00;;
54125;SDS011;40360;52.992;6.796;2023-08-07T03:22:26;11.63;;;3.28;;
54125;SDS011;40360;52.992;6.796;2023-08-07T03:24:52;11.32;;;3.83;;
54125;SDS011;40360;52.992;6.796;2023-08-07T03:27:17;14.73;;;3.90;;
54125;SDS011;40360;52.992;6.796;2023-08-07T03:29:43;11.05;;;3.90;;
54125;SDS011;40360;52.992;6.796;2023-08-07T03:32:09;14.20;;;3.50;;
54125;SDS011;40360;52.992;6.796;2023-08-07T03:34:34;13.15;;;3.75;;
54125;SDS011;40360;52.992;6.796;2023-08-07T03:37:00;12.93;;;4.28;;
54125;SDS011;40360;52.992;6.796;2023-08-07T03:39:25;10.65;;;3.30;;
54125;SDS011;40360;52.992;6.796;2023-08-07T03:41:51;11.40;;;3.83;;
54125;SDS011;40360;52.992;6.796;2023-08-07T03:44:17;7.57;;;3.30;;
54125;SDS011;40360;52.992;6.796;2023-08-07T03:46:42;13.82;;;4.30;;
54125;SDS011;40360;52.992;6.796;2023-08-07T03:49:08;14.73;;;4.15;;
54125;SDS011;40360;52.992;6.796;2023-08-07T03:51:34;15.90;;;3.58;;
54125;SDS011;40360;52.992;6.796;2023-08-07T03:53:59;12.27;;;3.92;;
54125;SDS011;40360;52.992;6.796;2023-08-07T03:56:25;11.80;;;3.42;;
54125;SDS011;40360;52.992;6.796;2023-08-07T03:58:50;10.00;;;3.72;;
54125;SDS011;40360;52.992;6.796;2023-08-07T04:01:16;14.70;;;3.90;;
54125;SDS011;40360;52.992;6.796;2023-08-07T04:03:42;13.82;;;4.07;;
54125;SDS011;40360;52.992;6.796;2023-08-07T04:06:07;12.27;;;4.38;;
54125;SDS011;40360;52.992;6.796;2023-08-07T04:08:35;9.95;;;4.03;;
54125;SDS011;40360;52.992;6.796;2023-08-07T04:11:02;16.65;;;4.50;;
54125;SDS011;40360;52.992;6.796;2023-08-07T04:13:28;11.70;;;4.50;;
54125;SDS011;40360;52.992;6.796;2023-08-07T04:15:54;9.45;;;3.65;;
54125;SDS011;40360;52.992;6.796;2023-08-07T04:18:21;14.95;;;4.32;;
54125;SDS011;40360;52.992;6.796;2023-08-07T04:20:52;11.75;;;3.80;;
54125;SDS011;40360;52.992;6.796;2023-08-07T04:23:18;14.30;;;3.97;;
54125;SDS011;40360;52.992;6.796;2023-08-07T04:25:45;16.73;;;4.28;;
54125;SDS011;40360;52.992;6.796;2023-08-07T04:28:12;14.55;;;4.18;;
54125;SDS011;40360;52.992;6.796;2023-08-07T04:30:38;13.13;;;4.70;;
54125;SDS011;40360;52.992;6.796;2023-08-07T04:33:03;11.57;;;3.60;;
54125;SDS011;40360;52.992;6.796;2023-08-07T04:35:30;10.18;;;4.07;;
54125;SDS011;40360;52.992;6.796;2023-08-07T04:37:55;14.48;;;4.13;;
54125;SDS011;40360;52.992;6.796;2023-08-07T04:40:21;8.10;;;3.47;;
54125;SDS011;40360;52.992;6.796;2023-08-07T04:42:48;8.77;;;3.22;;
54125;SDS011;40360;52.992;6.796;2023-08-07T04:45:14;12.35;;;4.13;;
54125;SDS011;40360;52.992;6.796;2023-08-07T04:47:40;11.75;;;3.70;;
54125;SDS011;40360;52.992;6.796;2023-08-07T04:50:06;14.05;;;4.20;;
54125;SDS011;40360;52.992;6.796;2023-08-07T04:52:33;11.73;;;3.75;;
54125;SDS011;40360;52.992;6.796;2023-08-07T04:54:59;9.57;;;3.63;;
54125;SDS011;40360;52.992;6.796;2023-08-07T04:57:24;10.27;;;3.78;;
54125;SDS011;40360;52.992;6.796;2023-08-07T04:59:50;10.43;;;3.92;;
54125;SDS011;40360;52.992;6.796;2023-08-07T05:02:16;14.57;;;5.30;;
54125;SDS011;40360;52.992;6.796;2023-08-07T05:04:41;10.52;;;3.50;;
54125;SDS011;40360;52.992;6.796;2023-08-07T05:07:07;9.77;;;3.80;;
54125;SDS011;40360;52.992;6.796;2023-08-07T05:09:33;11.90;;;4.80;;
54125;SDS011;40360;52.992;6.796;2023-08-07T05:11:58;14.85;;;4.15;;
54125;SDS011;40360;52.992;6.796;2023-08-07T05:14:24;17.02;;;3.97;;
54125;SDS011;40360;52.992;6.796;2023-08-07T05:16:49;9.65;;;4.63;;
54125;SDS011;40360;52.992;6.796;2023-08-07T05:19:15;9.43;;;3.90;;
54125;SDS011;40360;52.992;6.796;2023-08-07T05:21:40;17.85;;;5.22;;
54125;SDS011;40360;52.992;6.796;2023-08-07T05:24:06;11.05;;;4.82;;
54125;SDS011;40360;52.992;6.796;2023-08-07T05:26:32;16.23;;;4.38;;
54125;SDS011;40360;52.992;6.796;2023-08-07T05:28:57;11.98;;;5.00;;
54125;SDS011;40360;52.992;6.796;2023-08-07T05:31:24;14.40;;;4.88;;
54125;SDS011;40360;52.992;6.796;2023-08-07T05:33:50;10.15;;;4.47;;
54125;SDS011;40360;52.992;6.796;2023-08-07T05:36:15;13.13;;;4.53;;
54125;SDS011;40360;52.992;6.796;2023-08-07T05:38:41;12.80;;;4.65;;
54125;SDS011;40360;52.992;6.796;2023-08-07T05:41:08;11.35;;;3.92;;
54125;SDS011;40360;52.992;6.796;2023-08-07T05:43:34;10.52;;;4.13;;
54125;SDS011;40360;52.992;6.796;2023-08-07T06:02:12;13.10;;;4.85;;
54125;SDS011;40360;52.992;6.796;2023-08-07T06:04:37;19.42;;;5.55;;
54125;SDS011;40360;52.992;6.796;2023-08-07T06:07:04;14.55;;;4.93;;
54125;SDS011;40360;52.992;6.796;2023-08-07T06:09:30;14.88;;;5.28;;
54125;SDS011;40360;52.992;6.796;2023-08-07T06:11:55;17.08;;;5.68;;
54125;SDS011;40360;52.992;6.796;2023-08-07T06:14:21;14.45;;;5.75;;
54125;SDS011;40360;52.992;6.796;2023-08-07T06:16:47;12.15;;;4.45;;
54125;SDS011;40360;52.992;6.796;2023-08-07T06:19:13;14.38;;;5.13;;
54125;SDS011;40360;52.992;6.796;2023-08-07T06:21:38;16.48;;;5.88;;
54125;SDS011;40360;52.992;6.796;2023-08-07T06:24:04;22.42;;;5.32;;
54125;SDS011;40360;52.992;6.796;2023-08-07T06:26:30;18.33;;;4.65;;
54125;SDS011;40360;52.992;6.796;2023-08-07T06:28:55;11.43;;;4.78;;
54125;SDS011;40360;52.992;6.796;2023-08-07T06:31:21;17.35;;;5.95;;
54125;SDS011;40360;52.992;6.796;2023-08-07T06:33:46;14.57;;;4.18;;
54125;SDS011;40360;52.992;6.796;2023-08-07T06:36:12;13.65;;;4.95;;
54125;SDS011;40360;52.992;6.796;2023-08-07T06:38:38;11.50;;;4.03;;
54125;SDS011;40360;52.992;6.796;2023-08-07T06:41:04;11.93;;;4.03;;
54125;SDS011;40360;52.992;6.796;2023-08-07T06:43:29;12.20;;;4.55;;
54125;SDS011;40360;52.992;6.796;2023-08-07T06:45:55;12.55;;;4.50;;
54125;SDS011;40360;52.992;6.796;2023-08-07T06:48:22;9.60;;;3.83;;
54125;SDS011;40360;52.992;6.796;2023-08-07T06:50:48;15.15;;;3.95;;
54125;SDS011;40360;52.992;6.796;2023-08-07T06:53:15;16.52;;;4.32;;
54125;SDS011;40360;52.992;6.796;2023-08-07T06:55:41;11.15;;;4.35;;
54125;SDS011;40360;52.992;6.796;2023-08-07T06:58:07;15.25;;;3.70;;
54125;SDS011;40360;52.992;6.796;2023-08-07T07:00:33;13.75;;;4.15;;
54125;SDS011;40360;52.992;6.796;2023-08-07T07:03:00;10.75;;;3.72;;
54125;SDS011;40360;52.992;6.796;2023-08-07T07:05:26;13.73;;;4.53;;
54125;SDS011;40360;52.992;6.796;2023-08-07T07:08:02;17.50;;;4.40;;
54125;SDS011;40360;52.992;6.796;2023-08-07T07:10:30;15.25;;;4.55;;
54125;SDS011;40360;52.992;6.796;2023-08-07T07:12:56;10.82;;;3.83;;
54125;SDS011;40360;52.992;6.796;2023-08-07T07:15:21;16.58;;;4.55;;
54125;SDS011;40360;52.992;6.796;2023-08-07T07:17:47;13.20;;;4.13;;
54125;SDS011;40360;52.992;6.796;2023-08-07T07:20:14;14.85;;;4.95;;
54125;SDS011;40360;52.992;6.796;2023-08-07T07:22:39;12.48;;;4.20;;
54125;SDS011;40360;52.992;6.796;2023-08-07T07:25:05;9.75;;;3.28;;
54125;SDS011;40360;52.992;6.796;2023-08-07T07:27:31;10.60;;;3.53;;
54125;SDS011;40360;52.992;6.796;2023-08-07T07:29:57;11.38;;;3.38;;
54125;SDS011;40360;52.992;6.796;2023-08-07T07:32:22;12.07;;;4.25;;
54125;SDS011;40360;52.992;6.796;2023-08-07T07:34:49;13.90;;;3.85;;
54125;SDS011;40360;52.992;6.796;2023-08-07T07:37:14;16.23;;;4.43;;
54125;SDS011;40360;52.992;6.796;2023-08-07T07:39:42;8.13;;;3.65;;
54125;SDS011;40360;52.992;6.796;2023-08-07T07:42:07;12.35;;;3.60;;
54125;SDS011;40360;52.992;6.796;2023-08-07T07:44:33;9.68;;;2.72;;
54125;SDS011;40360;52.992;6.796;2023-08-07T07:47:01;10.45;;;2.80;;
54125;SDS011;40360;52.992;6.796;2023-08-07T07:49:27;10.82;;;3.38;;
54125;SDS011;40360;52.992;6.796;2023-08-07T07:51:53;6.68;;;2.83;;
54125;SDS011;40360;52.992;6.796;2023-08-07T07:54:19;12.70;;;3.75;;
54125;SDS011;40360;52.992;6.796;2023-08-07T07:56:45;11.35;;;2.92;;
54125;SDS011;40360;52.992;6.796;2023-08-07T07:59:11;9.23;;;3.33;;
54125;SDS011;40360;52.992;6.796;2023-08-07T08:01:37;11.90;;;2.75;;
54125;SDS011;40360;52.992;6.796;2023-08-07T08:04:03;9.38;;;2.55;;
54125;SDS011;40360;52.992;6.796;2023-08-07T08:06:29;8.68;;;3.05;;
54125;SDS011;40360;52.992;6.796;2023-08-07T08:08:55;6.45;;;2.95;;
54125;SDS011;40360;52.992;6.796;2023-08-07T08:11:21;11.68;;;3.22;;
54125;SDS011;40360;52.992;6.796;2023-08-07T08:13:47;10.45;;;3.20;;
54125;SDS011;40360;52.992;6.796;2023-08-07T08:16:14;10.02;;;3.15;;
54125;SDS011;40360;52.992;6.796;2023-08-07T08:18:40;6.35;;;2.38;;
54125;SDS011;40360;52.992;6.796;2023-08-07T08:21:06;11.32;;;3.50;;
54125;SDS011;40360;52.992;6.796;2023-08-07T08:23:31;9.40;;;3.10;;
54125;SDS011;40360;52.992;6.796;2023-08-07T08:25:57;10.63;;;3.70;;
54125;SDS011;40360;52.992;6.796;2023-08-07T08:28:23;9.27;;;3.80;;
54125;SDS011;40360;52.992;6.796;2023-08-07T08:30:48;9.05;;;3.13;;
54125;SDS011;40360;52.992;6.796;2023-08-07T08:33:14;12.48;;;3.60;;
54125;SDS011;40360;52.992;6.796;2023-08-07T08:35:40;7.38;;;2.95;;
54125;SDS011;40360;52.992;6.796;2023-08-07T08:38:06;11.27;;;3.20;;
54125;SDS011;40360;52.992;6.796;2023-08-07T08:40:33;10.00;;;3.53;;
54125;SDS011;40360;52.992;6.796;2023-08-07T08:43:02;6.25;;;2.75;;
54125;SDS011;40360;52.992;6.796;2023-08-07T08:45:30;9.75;;;2.95;;
54125;SDS011;40360;52.992;6.796;2023-08-07T08:48:00;9.80;;;3.25;;
54125;SDS011;40360;52.992;6.796;2023-08-07T08:50:28;9.57;;;3.78;;
54125;SDS011;40360;52.992;6.796;2023-08-07T08:52:55;15.10;;;3.38;;
54125;SDS011;40360;52.992;6.796;2023-08-07T08:55:21;11.85;;;4.18;;
54125;SDS011;40360;52.992;6.796;2023-08-07T08:57:47;8.70;;;3.03;;
54125;SDS011;40360;52.992;6.796;2023-08-07T09:00:15;14.73;;;3.70;;
54125;SDS011;40360;52.992;6.796;2023-08-07T09:02:46;9.52;;;3.10;;
54125;SDS011;40360;52.992;6.796;2023-08-07T09:05:13;12.70;;;4.70;;
54125;SDS011;40360;52.992;6.796;2023-08-07T09:07:41;10.40;;;3.28;;
54125;SDS011;40360;52.992;6.796;2023-08-07T09:10:07;9.25;;;3.53;;
54125;SDS011;40360;52.992;6.796;2023-08-07T09:12:36;13.73;;;3.97;;
54125;SDS011;40360;52.992;6.796;2023-08-07T09:15:06;11.25;;;3.78;;
54125;SDS011;40360;52.992;6.796;2023-08-07T09:17:35;14.15;;;3.47;;
54125;SDS011;40360;52.992;6.796;2023-08-07T09:20:05;9.23;;;3.42;;
54125;SDS011;40360;52.992;6.796;2023-08-07T09:22:41;10.60;;;3.58;;
54125;SDS011;40360;52.992;6.796;2023-08-07T09:25:07;7.63;;;2.67;;
54125;SDS011;40360;52.992;6.796;2023-08-07T09:27:35;7.03;;;2.95;;
54125;SDS011;40360;52.992;6.796;2023-08-07T09:30:05;10.13;;;3.22;;
54125;SDS011;40360;52.992;6.796;2023-08-07T09:32:35;5.90;;;2.80;;
54125;SDS011;40360;52.992;6.796;2023-08-07T09:35:02;8.13;;;2.40;;
54125;SDS011;40360;52.992;6.796;2023-08-07T09:37:29;8.93;;;2.47;;
54125;SDS011;40360;52.992;6.796;2023-08-07T09:39:55;9.95;;;3.30;;
54125;SDS011;40360;52.992;6.796;2023-08-07T09:42:22;8.65;;;3.03;;
54125;SDS011;40360;52.992;6.796;2023-08-07T09:44:47;11.43;;;3.10;;
54125;SDS011;40360;52.992;6.796;2023-08-07T09:47:17;5.43;;;2.88;;
54125;SDS011;40360;52.992;6.796;2023-08-07T09:49:43;7.20;;;2.40;;
54125;SDS011;40360;52.992;6.796;2023-08-07T09:52:10;10.15;;;2.58;;
54125;SDS011;40360;52.992;6.796;2023-08-07T09:54:39;8.88;;;2.58;;
54125;SDS011;40360;52.992;6.796;2023-08-07T09:57:05;10.80;;;3.10;;
54125;SDS011;40360;52.992;6.796;2023-08-07T09:59:35;6.03;;;2.03;;
54125;SDS011;40360;52.992;6.796;2023-08-07T10:02:01;7.32;;;2.20;;
54125;SDS011;40360;52.992;6.796;2023-08-07T10:04:27;8.18;;;3.58;;
54125;SDS011;40360;52.992;6.796;2023-08-07T10:06:53;10.40;;;3.08;;
54125;SDS011;40360;52.992;6.796;2023-08-07T10:09:19;9.75;;;3.03;;
54125;SDS011;40360;52.992;6.796;2023-08-07T10:11:46;8.07;;;2.53;;
54125;SDS011;40360;52.992;6.796;2023-08-07T10:14:13;7.25;;;2.75;;
54125;SDS011;40360;52.992;6.796;2023-08-07T10:16:40;9.73;;;3.22;;
54125;SDS011;40360;52.992;6.796;2023-08-07T10:19:07;9.02;;;3.53;;
54125;SDS011;40360;52.992;6.796;2023-08-07T10:21:38;8.15;;;3.03;;
54125;SDS011;40360;52.992;6.796;2023-08-07T10:24:05;7.15;;;2.95;;
54125;SDS011;40360;52.992;6.796;2023-08-07T10:26:32;10.55;;;2.85;;
54125;SDS011;40360;52.992;6.796;2023-08-07T10:29:00;6.35;;;2.50;;
54125;SDS011;40360;52.992;6.796;2023-08-07T10:31:28;7.80;;;2.70;;
54125;SDS011;40360;52.992;6.796;2023-08-07T10:33:55;8.38;;;3.30;;
54125;SDS011;40360;52.992;6.796;2023-08-07T10:36:20;10.43;;;2.97;;
54125;SDS011;40360;52.992;6.796;2023-08-07T10:38:49;6.72;;;2.65;;
54125;SDS011;40360;52.992;6.796;2023-08-07T10:41:18;13.48;;;5.03;;
54125;SDS011;40360;52.992;6.796;2023-08-07T10:43:45;10.82;;;2.80;;
54125;SDS011;40360;52.992;6.796;2023-08-07T10:46:16;8.98;;;3.17;;
54125;SDS011;40360;52.992;6.796;2023-08-07T10:48:46;11.63;;;3.22;;
54125;SDS011;40360;52.992;6.796;2023-08-07T10:51:18;11.32;;;3.67;;
54125;SDS011;40360;52.992;6.796;2023-08-07T10:53:44;8.73;;;3.20;;
54125;SDS011;40360;52.992;6.796;2023-08-07T10:56:32;9.48;;;2.78;;
54125;SDS011;40360;52.992;6.796;2023-08-07T10:59:08;7.18;;;2.88;;
54125;SDS011;40360;52.992;6.796;2023-08-07T11:04:13;8.10;;;2.70;;
54125;SDS011;40360;52.992;6.796;2023-08-07T11:06:39;8.32;;;2.50;;
54125;SDS011;40360;52.992;6.796;2023-08-07T11:09:06;8.07;;;2.42;;
54125;SDS011;40360;52.992;6.796;2023-08-07T11:14:11;8.88;;;2.67;;
54125;SDS011;40360;52.992;6.796;2023-08-07T11:16:38;7.65;;;2.97;;
54125;SDS011;40360;52.992;6.796;2023-08-07T11:19:04;9.27;;;2.63;;
54125;SDS011;40360;52.992;6.796;2023-08-07T11:21:30;8.45;;;2.80;;
54125;SDS011;40360;52.992;6.796;2023-08-07T11:23:57;11.02;;;3.20;;
54125;SDS011;40360;52.992;6.796;2023-08-07T11:26:23;8.88;;;2.78;;
54125;SDS011;40360;52.992;6.796;2023-08-07T11:28:51;5.43;;;1.98;;
54125;SDS011;40360;52.992;6.796;2023-08-07T11:31:17;7.20;;;2.00;;
54125;SDS011;40360;52.992;6.796;2023-08-07T11:33:44;8.85;;;1.85;;
54125;SDS011;40360;52.992;6.796;2023-08-07T11:36:10;5.90;;;2.90;;
54125;SDS011;40360;52.992;6.796;2023-08-07T11:38:40;6.53;;;2.17;;
54125;SDS011;40360;52.992;6.796;2023-08-07T11:41:13;8.02;;;2.83;;
54125;SDS011;40360;52.992;6.796;2023-08-07T11:43:40;7.22;;;2.00;;
54125;SDS011;40360;52.992;6.796;2023-08-07T11:46:07;9.00;;;1.95;;
54125;SDS011;40360;52.992;6.796;2023-08-07T11:48:35;6.45;;;2.10;;
54125;SDS011;40360;52.992;6.796;2023-08-07T11:51:02;7.70;;;2.13;;
54125;SDS011;40360;52.992;6.796;2023-08-07T11:53:30;5.05;;;1.98;;
54125;SDS011;40360;52.992;6.796;2023-08-07T11:58:25;6.88;;;2.70;;
54125;SDS011;40360;52.992;6.796;2023-08-07T12:00:55;5.18;;;2.08;;
54125;SDS011;40360;52.992;6.796;2023-08-07T12:03:24;8.15;;;2.35;;
54125;SDS011;40360;52.992;6.796;2023-08-07T12:05:54;6.75;;;2.50;;
54125;SDS011;40360;52.992;6.796;2023-08-07T12:08:21;6.30;;;2.40;;
54125;SDS011;40360;52.992;6.796;2023-08-07T12:10:53;12.77;;;2.40;;
54125;SDS011;40360;52.992;6.796;2023-08-07T12:13:25;7.05;;;2.38;;
54125;SDS011;40360;52.992;6.796;2023-08-07T12:15:55;11.33;;;2.80;;
54125;SDS011;40360;52.992;6.796;2023-08-07T12:18:22;7.72;;;2.50;;
54125;SDS011;40360;52.992;6.796;2023-08-07T12:20:51;9.75;;;2.40;;
54125;SDS011;40360;52.992;6.796;2023-08-07T12:23:18;6.63;;;2.63;;
54125;SDS011;40360;52.992;6.796;2023-08-07T12:25:46;9.00;;;2.67;;
54125;SDS011;40360;52.992;6.796;2023-08-07T12:28:12;7.60;;;2.08;;
54125;SDS011;40360;52.992;6.796;2023-08-07T12:30:38;6.60;;;2.28;;
54125;SDS011;40360;52.992;6.796;2023-08-07T12:33:04;7.90;;;3.78;;
54125;SDS011;40360;52.992;6.796;2023-08-07T12:35:30;6.85;;;2.85;;
54125;SDS011;40360;52.992;6.796;2023-08-07T12:37:56;6.30;;;2.70;;
54125;SDS011;40360;52.992;6.796;2023-08-07T12:40:22;7.13;;;2.75;;
54125;SDS011;40360;52.992;6.796;2023-08-07T12:42:48;9.05;;;2.80;;
54125;SDS011;40360;52.992;6.796;2023-08-07T12:45:14;7.82;;;2.70;;
54125;SDS011;40360;52.992;6.796;2023-08-07T12:47:41;8.00;;;1.90;;
54125;SDS011;40360;52.992;6.796;2023-08-07T12:50:07;4.88;;;1.90;;
54125;SDS011;40360;52.992;6.796;2023-08-07T12:52:34;5.78;;;2.70;;
54125;SDS011;40360;52.992;6.796;2023-08-07T12:54:59;4.72;;;1.95;;
54125;SDS011;40360;52.992;6.796;2023-08-07T12:57:25;7.60;;;2.35;;
54125;SDS011;40360;52.992;6.796;2023-08-07T12:59:51;6.47;;;2.55;;
54125;SDS011;40360;52.992;6.796;2023-08-07T13:02:17;4.78;;;2.55;;
54125;SDS011;40360;52.992;6.796;2023-08-07T13:04:42;6.38;;;2.40;;
54125;SDS011;40360;52.992;6.796;2023-08-07T13:07:08;5.80;;;1.83;;
54125;SDS011;40360;52.992;6.796;2023-08-07T13:09:34;3.90;;;1.90;;
54125;SDS011;40360;52.992;6.796;2023-08-07T13:11:59;6.47;;;2.25;;
54125;SDS011;40360;52.992;6.796;2023-08-07T13:14:25;8.45;;;3.03;;
54125;SDS011;40360;52.992;6.796;2023-08-07T13:16:51;6.45;;;2.33;;
54125;SDS011;40360;52.992;6.796;2023-08-07T13:19:16;4.45;;;2.38;;
54125;SDS011;40360;52.992;6.796;2023-08-07T13:21:43;5.05;;;2.00;;
54125;SDS011;40360;52.992;6.796;2023-08-07T13:24:08;6.55;;;2.25;;
54125;SDS011;40360;52.992;6.796;2023-08-07T13:26:34;4.75;;;1.80;;
54125;SDS011;40360;52.992;6.796;2023-08-07T13:28:59;7.38;;;2.25;;
54125;SDS011;40360;52.992;6.796;2023-08-07T13:31:25;7.10;;;2.58;;
54125;SDS011;40360;52.992;6.796;2023-08-07T13:33:51;8.98;;;2.33;;
54125;SDS011;40360;52.992;6.796;2023-08-07T13:36:17;6.75;;;2.13;;
54125;SDS011;40360;52.992;6.796;2023-08-07T13:38:42;8.45;;;3.05;;
54125;SDS011;40360;52.992;6.796;2023-08-07T13:41:08;4.35;;;2.00;;
54125;SDS011;40360;52.992;6.796;2023-08-07T13:43:34;6.07;;;2.25;;
54125;SDS011;40360;52.992;6.796;2023-08-07T13:45:59;6.15;;;2.10;;
54125;SDS011;40360;52.992;6.796;2023-08-07T13:48:25;4.00;;;2.08;;
54125;SDS011;40360;52.992;6.796;2023-08-07T13:50:52;5.97;;;2.70;;
54125;SDS011;40360;52.992;6.796;2023-08-07T13:53:18;5.90;;;2.60;;
54125;SDS011;40360;52.992;6.796;2023-08-07T13:55:45;7.22;;;2.22;;
54125;SDS011;40360;52.992;6.796;2023-08-07T13:58:11;6.18;;;2.30;;
54125;SDS011;40360;52.992;6.796;2023-08-07T14:00:40;6.65;;;2.47;;
54125;SDS011;40360;52.992;6.796;2023-08-07T14:03:06;7.05;;;2.83;;
54125;SDS011;40360;52.992;6.796;2023-08-07T14:05:33;9.35;;;3.05;;
54125;SDS011;40360;52.992;6.796;2023-08-07T14:07:59;7.82;;;2.50;;
54125;SDS011;40360;52.992;6.796;2023-08-07T14:10:25;7.55;;;2.17;;
54125;SDS011;40360;52.992;6.796;2023-08-07T14:12:50;9.93;;;3.10;;
54125;SDS011;40360;52.992;6.796;2023-08-07T14:15:16;5.90;;;2.38;;
54125;SDS011;40360;52.992;6.796;2023-08-07T14:17:41;8.50;;;2.97;;
54125;SDS011;40360;52.992;6.796;2023-08-07T14:20:07;11.55;;;2.83;;
54125;SDS011;40360;52.992;6.796;2023-08-07T14:22:33;6.72;;;3.17;;
54125;SDS011;40360;52.992;6.796;2023-08-07T14:25:01;6.13;;;2.40;;
54125;SDS011;40360;52.992;6.796;2023-08-07T14:27:28;6.70;;;2.70;;
54125;SDS011;40360;52.992;6.796;2023-08-07T14:29:54;7.53;;;2.67;;
54125;SDS011;40360;52.992;6.796;2023-08-07T14:32:19;5.95;;;2.40;;
54125;SDS011;40360;52.992;6.796;2023-08-07T14:34:45;4.15;;;2.28;;
54125;SDS011;40360;52.992;6.796;2023-08-07T14:37:12;9.02;;;2.65;;
54125;SDS011;40360;52.992;6.796;2023-08-07T14:39:38;6.55;;;2.38;;
54125;SDS011;40360;52.992;6.796;2023-08-07T14:42:04;5.05;;;1.83;;
54125;SDS011;40360;52.992;6.796;2023-08-07T14:44:29;5.00;;;2.13;;
54125;SDS011;40360;52.992;6.796;2023-08-07T14:46:55;7.13;;;2.00;;
54125;SDS011;40360;52.992;6.796;2023-08-07T14:49:21;6.35;;;2.88;;
54125;SDS011;40360;52.992;6.796;2023-08-07T14:51:46;6.88;;;2.75;;
54125;SDS011;40360;52.992;6.796;2023-08-07T14:54:12;7.10;;;2.33;;
54125;SDS011;40360;52.992;6.796;2023-08-07T14:56:38;6.85;;;2.72;;
54125;SDS011;40360;52.992;6.796;2023-08-07T14:59:03;8.88;;;3.42;;
54125;SDS011;40360;52.992;6.796;2023-08-07T15:01:29;9.23;;;2.58;;
54125;SDS011;40360;52.992;6.796;2023-08-07T15:03:54;9.23;;;3.05;;
54125;SDS011;40360;52.992;6.796;2023-08-07T15:06:20;6.80;;;2.30;;
54125;SDS011;40360;52.992;6.796;2023-08-07T15:08:46;7.45;;;2.65;;
54125;SDS011;40360;52.992;6.796;2023-08-07T15:11:12;4.88;;;2.10;;
54125;SDS011;40360;52.992;6.796;2023-08-07T15:13:39;8.98;;;2.47;;